createdAt,value
2023-05-18T00:04:45.116Z,55.03
2023-05-18T00:15:07.114Z,54.77
2023-05-18T00:25:28.669Z,54.76
2023-05-18T00:35:51.245Z,54.90
2023-05-18T00:46:12.761Z,55.53
2023-05-18T00:56:34.557Z,54.85
2023-05-18T01:06:56.870Z,54.94
2023-05-18T01:17:44.389Z,55.15
2023-05-18T01:28:10.282Z,54.77
2023-05-18T01:38:32.175Z,55.60
2023-05-18T01:48:56.711Z,55.54
2023-05-18T01:59:18.484Z,54.93
2023-05-18T02:09:40.043Z,55.28
2023-05-18T02:20:02.509Z,55.70
2023-05-18T02:30:23.962Z,54.31
2023-05-18T02:40:45.633Z,55.55
2023-05-18T02:51:07.233Z,54.99
2023-05-18T03:01:28.904Z,55.47
2023-05-18T03:11:52.174Z,54.83
2023-05-18T03:22:14.111Z,55.79
2023-05-18T03:32:37.401Z,54.55
2023-05-18T03:42:59.303Z,55.02
2023-05-18T03:53:21.757Z,55.03
2023-05-18T04:03:44.093Z,55.52
2023-05-18T04:14:06.160Z,55.60
2023-05-18T04:24:27.798Z,55.83
2023-05-18T04:34:49.802Z,55.40
2023-05-18T04:45:15.962Z,54.94
2023-05-18T04:55:38.491Z,55.54
2023-05-18T05:06:03.593Z,55.52
2023-05-18T05:16:25.275Z,55.33
2023-05-18T05:26:46.675Z,56.16
2023-05-18T05:37:08.097Z,55.55
2023-05-18T05:47:29.693Z,55.38
2023-05-18T05:57:51.938Z,56.16
2023-05-18T06:08:13.977Z,55.45
2023-05-18T06:18:36.797Z,55.62
2023-05-18T06:29:01.260Z,55.80
2023-05-18T06:39:26.926Z,55.69
2023-05-18T06:49:48.472Z,55.37
2023-05-18T07:00:13.540Z,55.42
2023-05-18T07:10:36.036Z,55.41
2023-05-18T07:20:57.501Z,55.16
2023-05-18T07:31:21.590Z,54.74
2023-05-18T07:41:43.343Z,54.82
2023-05-18T07:52:07.784Z,54.72
2023-05-18T08:02:31.411Z,54.20
2023-05-18T08:12:54.202Z,53.83
2023-05-18T08:23:16.137Z,54.13
2023-05-18T08:33:37.340Z,53.79
2023-05-18T08:44:05.172Z,53.69
2023-05-18T08:54:27.549Z,53.85
2023-05-18T09:04:48.979Z,53.75
2023-05-18T09:15:10.990Z,53.99
2023-05-18T09:25:35.363Z,53.85
2023-05-18T09:35:57.589Z,53.64
2023-05-18T09:46:21.246Z,53.58
2023-05-18T09:56:55.346Z,53.64
2023-05-18T10:07:28.526Z,53.50
2023-05-18T10:17:52.476Z,53.47
2023-05-18T10:28:20.457Z,53.33
2023-05-18T10:38:45.567Z,53.41
2023-05-18T10:49:13.431Z,53.18
2023-05-18T10:59:35.661Z,53.15
2023-05-18T11:09:56.959Z,53.10
2023-05-18T11:20:18.463Z,52.76
2023-05-18T11:30:40.663Z,53.01
2023-05-18T11:41:02.029Z,53.03
2023-05-18T11:51:25.535Z,52.97
2023-05-18T12:01:46.811Z,53.26
2023-05-18T12:12:08.625Z,53.20
2023-05-18T12:22:30.139Z,53.18
2023-05-18T12:32:56.304Z,53.03
2023-05-18T12:43:18.198Z,52.72
2023-05-18T12:53:43.238Z,52.75
2023-05-18T13:04:11.272Z,52.75
2023-05-18T13:14:38.664Z,52.78
2023-05-18T13:25:00.043Z,52.85
2023-05-18T13:35:21.913Z,53.02
2023-05-18T13:45:43.702Z,52.91
2023-05-18T13:56:05.553Z,53.04
2023-05-18T14:06:27.879Z,53.09
2023-05-18T14:16:49.109Z,53.02
2023-05-18T14:27:10.789Z,53.02
2023-05-18T14:37:33.316Z,53.03
2023-05-18T14:47:54.455Z,52.97
2023-05-18T14:58:17.260Z,52.89
2023-05-18T15:08:38.616Z,52.83
2023-05-18T15:19:00.045Z,52.92
2023-05-18T15:29:21.872Z,53.00
2023-05-18T15:39:43.294Z,52.84
2023-05-18T15:50:05.156Z,53.06
2023-05-18T16:00:26.650Z,53.40
2023-05-18T16:10:48.089Z,53.49
2023-05-18T16:21:09.643Z,53.71
2023-05-18T16:31:31.382Z,53.74
2023-05-18T16:41:52.933Z,53.81
2023-05-18T16:52:16.193Z,53.79
2023-05-18T17:02:38.399Z,54.17
2023-05-18T17:13:00.177Z,54.30
2023-05-18T17:23:21.645Z,54.19
2023-05-18T17:33:47.456Z,54.34
2023-05-18T17:44:08.630Z,54.45
2023-05-18T17:54:30.288Z,54.57
2023-05-18T18:04:51.689Z,54.54
2023-05-18T18:15:13.455Z,54.59
2023-05-18T18:25:35.157Z,54.51
2023-05-18T18:35:57.799Z,54.58
2023-05-18T18:46:19.131Z,55.03
2023-05-18T18:56:40.564Z,55.02
2023-05-18T19:07:03.333Z,54.76
2023-05-18T19:17:26.825Z,54.70
2023-05-18T19:27:48.678Z,54.69
2023-05-18T19:38:09.827Z,55.00
2023-05-18T19:48:31.883Z,54.82
2023-05-18T19:58:53.335Z,54.94
2023-05-18T20:09:14.934Z,54.91
2023-05-18T20:19:37.953Z,55.00
2023-05-18T20:30:00.854Z,55.40
2023-05-18T20:40:23.402Z,54.79
2023-05-18T20:50:44.987Z,55.16
2023-05-18T21:01:07.287Z,54.69
2023-05-18T21:11:28.775Z,54.77
2023-05-18T21:21:50.046Z,54.95
2023-05-18T21:32:11.522Z,54.73
2023-05-18T21:42:33.518Z,54.77
2023-05-18T21:52:54.910Z,54.81
2023-05-18T22:03:15.764Z,54.37
2023-05-18T22:13:37.242Z,54.50
2023-05-18T22:23:58.564Z,54.72
2023-05-18T22:34:19.953Z,54.41
2023-05-18T22:44:41.355Z,54.09
2023-05-18T22:55:05.675Z,54.72
2023-05-18T23:05:27.931Z,54.61
2023-05-18T23:15:49.210Z,55.34
2023-05-18T23:26:11.002Z,55.26
2023-05-18T23:36:35.290Z,54.71
2023-05-18T23:46:57.134Z,54.99
2023-05-18T23:57:18.836Z,55.21
